WetterOnline ( https://www.wetteronline.de )

Wetter aktuell Hamburg

Aktuelles Wetter: Hamburg/Fuhlsbüttel (15m)

6-stündlich | Neueste Meldungen
Ortszeit Temperatur Wetter
Mi, 23.10. 2:00 10.0° C bewölkt
Di, 22.10. 20:00 12.6° C bewölkt
Di, 22.10. 14:00 13.3° C bewölkt
Di, 22.10. 8:00 11.4° C bewölkt
Di, 22.10. 2:00 11.3° C leicht bewölkt
Mo, 21.10. 20:00 13.2° C leicht bewölkt
Mo, 21.10. 14:00 14.0° C bedeckt
Mo, 21.10. 8:00 11.8° C bedeckt
Ortszeit Temperatur Wetter
Mi, 23.10. 7:20 9° C bewölkt
Mi, 23.10. 7:00 8.5° C Nebel (zunehmend)
Mi, 23.10. 6:50 8.5° C Nebel
Mi, 23.10. 6:40 8.5° C Nebel
Mi, 23.10. 6:30 8.5° C -
Mi, 23.10. 6:20 8.5° C -
Mi, 23.10. 6:00 8.6° C wolkig
Mi, 23.10. 5:30 8.6° C -
Mi, 23.10. 5:00 8.3° C fast wolkenlos
Mi, 23.10. 4:30 8.9° C -
Mi, 23.10. 4:00 9.2° C leicht bewölkt
Ortszeit Relative Feuchte Sichtweite
Mi, 23.10. 2:00 97% 9 km
Di, 22.10. 20:00 86% 18 km
Di, 22.10. 14:00 78% 30 km
Di, 22.10. 8:00 81% 30 km
Di, 22.10. 2:00 85% 25 km
Mo, 21.10. 20:00 96% 12 km
Mo, 21.10. 14:00 94% 5.0 km
Mo, 21.10. 8:00 92% 12 km
Ortszeit Relative Feuchte Sichtweite
Mi, 23.10. 7:20 93% 2.5 km
Mi, 23.10. 7:00 98% 0.9 km
Mi, 23.10. 6:50 98% -
Mi, 23.10. 6:40 97% -
Mi, 23.10. 6:30 97% 1.8 km
Mi, 23.10. 6:20 97% -
Mi, 23.10. 6:00 96% 6 km
Mi, 23.10. 5:30 95% 5.0 km
Mi, 23.10. 5:00 96% 7 km
Mi, 23.10. 4:30 97% 7 km
Mi, 23.10. 4:00 94% 8 km
Ortszeit Niederschlagsmenge Niederschlagsart
Mi, 23.10. 2:00 0.0 l/m2 in 6 Std. -
Di, 22.10. 20:00 0.0 l/m2 in 12 Std. -
Di, 22.10. 14:00 0.0 l/m2 in 6 Std. -
Di, 22.10. 8:00 0.0 l/m2 in 12 Std. -
Di, 22.10. 2:00 0.0 l/m2 in 6 Std. -
Mo, 21.10. 20:00 0.1 l/m2 in 12 Std. -
Mo, 21.10. 14:00 0.1 l/m2 in 6 Std. Regen
Mo, 21.10. 8:00 8 l/m2 in 12 Std. Regen
Ortszeit Niederschlagsmenge Niederschlagsart
Mi, 23.10. 7:20 keine Meldung -
Mi, 23.10. 7:00 0.0 l/m2 in 1 Std. -
Mi, 23.10. 6:50 keine Meldung -
Mi, 23.10. 6:40 keine Meldung -
Mi, 23.10. 6:30 0.0 l/m2 in 1 Std. -
Mi, 23.10. 6:20 keine Meldung -
Mi, 23.10. 6:00 0.0 l/m2 in 1 Std. -
Mi, 23.10. 5:30 0.0 l/m2 in 1 Std. -
Mi, 23.10. 5:00 0.0 l/m2 in 1 Std. -
Mi, 23.10. 4:30 0.0 l/m2 in 1 Std. -
Mi, 23.10. 4:00 0.0 l/m2 in 1 Std. -
Ortszeit Stärke Spitze Richtung
km/h Bft. km/h Grad Sektor
Mi, 23.10. 2:00 7 2 18 160° S
Di, 22.10. 20:00 7 2 32 230° SW
Di, 22.10. 14:00 20 4 33 230° SW
Di, 22.10. 8:00 18 3 29 210° SW
Di, 22.10. 2:00 4 1 25 210° SW
Mo, 21.10. 20:00 7 2 22 60° NO
Mo, 21.10. 14:00 14 3 25 170° S
Mo, 21.10. 8:00 11 2 36 90° O
Ortszeit Stärke Spitze Richtung
km/h Bft. km/h Grad Sektor
Mi, 23.10. 7:20 6 1 - 140° SO
Mi, 23.10. 7:00 7 2 14 170° S
Mi, 23.10. 6:50 7 2 - 170° S
Mi, 23.10. 6:40 9 2 - 170° S
Mi, 23.10. 6:30 9 2 13 160° S
Mi, 23.10. 6:20 9 2 - 160° S
Mi, 23.10. 6:00 6 1 11 160° S
Mi, 23.10. 5:30 6 1 9 140° SO
Mi, 23.10. 5:00 9 2 11 150° SO
Mi, 23.10. 4:30 6 1 7 130° SO
Mi, 23.10. 4:00 4 1 7 120° SO
Ortszeit Untergrenze Bedeckung Gattung
total tief tief mittel hoch
Mi, 23.10. 2:00 900 m 7/8 7/8 Sc - -
Di, 22.10. 20:00 930 m 7/8 7/8 Sc - -
Di, 22.10. 14:00 510 m 7/8 7/8 Cu - -
Di, 22.10. 8:00 1080 m 7/8 7/8 Sc - -
Di, 22.10. 2:00 1260 m 4/8 1/8 Sc Ac -
Mo, 21.10. 20:00 1020 m 2/8 2/8 Sc - -
Mo, 21.10. 14:00 120 m 8/8 7/8 St - -
Mo, 21.10. 8:00 180 m 8/8 7/8 St - -
Ortszeit Bedeckungsgrad in Achtel und Wolkenuntergrenze
Mi, 23.10. 7:20 5-7(60m) 5-7(990m)
Mi, 23.10. 7:00 8(30m)
Mi, 23.10. 6:50 -
Mi, 23.10. 6:40 -
Mi, 23.10. 6:30 -
Mi, 23.10. 6:20 -
Mi, 23.10. 6:00 2(330m) 4(510m)
Mi, 23.10. 5:30 -
Mi, 23.10. 5:00 1(450m)
Mi, 23.10. 4:30 -
Mi, 23.10. 4:00 2(960m)
Ortszeit Luftdruck NN (hPa) Tendenz (hPa in 3 Std.)
Mi, 23.10. 2:00 1023 - 0,4
Di, 22.10. 20:00 1024 + 0,7
Di, 22.10. 14:00 1023 + 0,2
Di, 22.10. 8:00 1021 + 0,5
Di, 22.10. 2:00 1021 + 1,0
Mo, 21.10. 20:00 1019 + 1,7
Mo, 21.10. 14:00 1017 + 1,3
Mo, 21.10. 8:00 1015 + 1,3
Ortszeit Luftdruck NN (hPa) Tendenz (hPa in 3 Std.)
Mi, 23.10. 7:20 1021 keine Meldung
Mi, 23.10. 7:00 1022 - 0,7
Mi, 23.10. 6:50 1022 keine Meldung
Mi, 23.10. 6:40 1022 keine Meldung
Mi, 23.10. 6:30 1022 - 1,2
Mi, 23.10. 6:20 1022 keine Meldung
Mi, 23.10. 6:00 1022 - 1,2
Mi, 23.10. 5:30 1022 - 1,4
Mi, 23.10. 5:00 1022 - 1,5
Mi, 23.10. 4:30 1022 - 1,2
Mi, 23.10. 4:00 1023 - 0,8
Ortszeit Schneehöhe (cm)
Mi, 23.10. 2:00 0
Di, 22.10. 20:00 0
Di, 22.10. 14:00 0
Di, 22.10. 8:00 0
Di, 22.10. 2:00 0
Mo, 21.10. 20:00 0
Mo, 21.10. 14:00 0
Mo, 21.10. 8:00 0
Ortszeit Schneehöhe (cm)
Mi, 23.10. 7:20 -
Mi, 23.10. 7:00 -
Mi, 23.10. 6:50 -
Mi, 23.10. 6:40 -
Mi, 23.10. 6:30 -
Mi, 23.10. 6:20 -
Mi, 23.10. 6:00 -
Mi, 23.10. 5:30 -
Mi, 23.10. 5:00 -
Mi, 23.10. 4:30 -
Mi, 23.10. 4:00 -
Link zu dieser Seite / Seite empfehlen

Das Wetter in ...